createdAt,value
2023-06-21T00:00:11.948Z,100499.09
2023-06-21T00:02:39.268Z,100494.78
2023-06-21T00:05:07.158Z,100488.75
2023-06-21T00:07:33.837Z,100484.69
2023-06-21T00:10:00.474Z,100478.00
2023-06-21T00:12:27.389Z,100475.59
2023-06-21T00:14:54.222Z,100476.56
2023-06-21T00:17:20.978Z,100485.25
2023-06-21T00:19:47.867Z,100486.16
2023-06-21T00:22:17.209Z,100491.47
2023-06-21T00:24:43.830Z,100494.06
2023-06-21T00:27:10.898Z,100497.78
2023-06-21T00:29:38.588Z,100506.53
2023-06-21T00:32:06.220Z,100512.63
2023-06-21T00:34:32.962Z,100505.84
2023-06-21T00:36:59.807Z,100512.09
2023-06-21T00:39:26.617Z,100519.88
2023-06-21T00:41:53.100Z,100525.94
2023-06-21T00:44:22.131Z,100520.84
2023-06-21T00:46:51.688Z,100522.69
2023-06-21T00:49:20.093Z,100521.13
2023-06-21T00:51:47.291Z,100516.94
2023-06-21T00:54:14.750Z,100517.69
2023-06-21T00:56:41.602Z,100512.66
2023-06-21T00:59:08.334Z,100508.44
2023-06-21T01:01:34.708Z,100492.06
2023-06-21T01:04:01.763Z,100483.56
2023-06-21T01:06:34.893Z,100474.13
2023-06-21T01:09:19.881Z,100468.03
2023-06-21T01:12:08.237Z,100469.78
2023-06-21T01:15:10.722Z,100474.09
2023-06-21T01:17:41.410Z,100472.38
2023-06-21T01:20:14.448Z,100476.63
2023-06-21T01:22:53.251Z,100476.47
2023-06-21T01:26:01.418Z,100479.06
2023-06-21T01:28:46.627Z,100477.19
2023-06-21T01:31:17.676Z,100473.81
2023-06-21T01:33:45.645Z,100476.41
2023-06-21T01:36:12.683Z,100473.81
2023-06-21T01:38:39.426Z,100479.06
2023-06-21T01:41:06.240Z,100476.53
2023-06-21T01:43:32.908Z,100475.63
2023-06-21T01:46:02.121Z,100471.38
2023-06-21T01:48:31.017Z,100466.03
2023-06-21T01:50:59.273Z,100467.78
2023-06-21T01:53:26.089Z,100460.81
2023-06-21T01:55:54.292Z,100471.97
2023-06-21T01:58:21.227Z,100472.88
2023-06-21T02:00:48.039Z,100473.72
2023-06-21T02:03:15.715Z,100470.97
2023-06-21T02:05:43.838Z,100470.13
2023-06-21T02:08:15.674Z,100481.38
2023-06-21T02:10:46.493Z,100476.16
2023-06-21T02:13:15.608Z,100480.47
2023-06-21T02:15:42.295Z,100476.91
2023-06-21T02:18:11.457Z,100483.81
2023-06-21T02:20:38.299Z,100484.66
2023-06-21T02:23:05.902Z,100486.25
2023-06-21T02:25:34.935Z,100491.47
2023-06-21T02:28:01.424Z,100500.91
2023-06-21T02:30:28.186Z,100512.19
2023-06-21T02:32:55.154Z,100539.78
2023-06-21T02:35:21.876Z,100547.50
2023-06-21T02:37:48.331Z,100550.03
2023-06-21T02:40:15.272Z,100542.22
2023-06-21T02:42:43.193Z,100562.00
2023-06-21T02:45:10.521Z,100568.06
2023-06-21T02:47:37.075Z,100560.31
2023-06-21T02:50:04.597Z,100560.31
2023-06-21T02:52:31.737Z,100580.22
2023-06-21T02:54:59.115Z,100569.00
2023-06-21T02:57:25.940Z,100567.22
2023-06-21T02:59:52.563Z,100576.81
2023-06-21T03:02:19.143Z,100584.41
2023-06-21T03:04:45.931Z,100582.81
2023-06-21T03:07:12.566Z,100584.59
2023-06-21T03:09:39.425Z,100584.59
2023-06-21T03:12:06.507Z,100579.41
2023-06-21T03:14:33.312Z,100563.88
2023-06-21T03:16:59.848Z,100548.22
2023-06-21T03:19:26.589Z,100531.34
2023-06-21T03:21:53.473Z,100540.78
2023-06-21T03:24:20.774Z,100538.28
2023-06-21T03:26:47.548Z,100516.53
2023-06-21T03:29:14.056Z,100528.03
2023-06-21T03:31:41.036Z,100524.63
2023-06-21T03:34:08.264Z,100518.47
2023-06-21T03:36:34.908Z,100520.19
2023-06-21T03:39:01.634Z,100524.53
2023-06-21T03:41:28.477Z,100529.72
2023-06-21T03:43:55.109Z,100534.78
2023-06-21T03:46:22.013Z,100533.84
2023-06-21T03:48:48.764Z,100535.53
2023-06-21T03:51:17.894Z,100540.72
2023-06-21T03:53:44.807Z,100543.28
2023-06-21T03:56:11.579Z,100554.56
2023-06-21T03:58:38.042Z,100555.47
2023-06-21T04:01:04.754Z,100547.63
2023-06-21T04:03:31.626Z,100548.41
2023-06-21T04:05:58.243Z,100564.72
2023-06-21T04:08:24.764Z,100571.75
2023-06-21T04:10:51.511Z,100563.16
2023-06-21T04:13:18.108Z,100571.81
2023-06-21T04:15:44.905Z,100585.69
2023-06-21T04:18:11.878Z,100584.84
2023-06-21T04:20:38.942Z,100572.75
2023-06-21T04:23:05.549Z,100570.97
2023-06-21T04:25:34.524Z,100578.63
2023-06-21T04:28:01.082Z,100571.75
2023-06-21T04:30:27.931Z,100576.03
2023-06-21T04:32:54.797Z,100582.91
2023-06-21T04:35:21.492Z,100588.84
2023-06-21T04:37:49.135Z,100584.47
2023-06-21T04:40:18.614Z,100591.97
2023-06-21T04:42:50.083Z,100589.84
2023-06-21T04:45:17.777Z,100592.28
2023-06-21T04:47:45.230Z,100610.34
2023-06-21T04:50:21.277Z,100643.88
2023-06-21T04:52:48.612Z,100660.03
2023-06-21T04:55:15.572Z,100669.53
2023-06-21T04:57:43.090Z,100679.03
2023-06-21T05:00:10.076Z,100678.75
2023-06-21T05:02:36.538Z,100674.34
2023-06-21T05:05:03.144Z,100666.13
2023-06-21T05:07:29.581Z,100671.00
2023-06-21T05:09:56.021Z,100668.16
2023-06-21T05:12:22.398Z,100674.03
2023-06-21T05:14:48.810Z,100668.41
2023-06-21T05:17:15.464Z,100664.78
2023-06-21T05:19:41.893Z,100656.47
2023-06-21T05:22:08.328Z,100659.66
2023-06-21T05:24:34.871Z,100657.75
2023-06-21T05:27:01.298Z,100665.06
2023-06-21T05:29:27.734Z,100656.94
2023-06-21T05:31:54.127Z,100651.59
2023-06-21T05:34:20.530Z,100653.91
2023-06-21T05:36:46.926Z,100657.88
2023-06-21T05:39:13.356Z,100659.28
2023-06-21T05:41:39.756Z,100651.28
2023-06-21T05:44:06.330Z,100658.81
2023-06-21T05:46:32.819Z,100661.69
2023-06-21T05:48:59.234Z,100665.00
2023-06-21T05:51:25.616Z,100658.03
2023-06-21T05:53:51.990Z,100671.06
2023-06-21T05:56:18.423Z,100676.22
2023-06-21T05:58:44.830Z,100684.66
2023-06-21T06:01:23.496Z,100673.25
2023-06-21T06:03:50.966Z,100670.28
2023-06-21T06:06:18.900Z,100678.59
2023-06-21T06:08:45.335Z,100683.81
2023-06-21T06:11:11.787Z,100691.22
2023-06-21T06:13:38.227Z,100689.31
2023-06-21T06:16:04.760Z,100687.94
2023-06-21T06:18:31.034Z,100682.28
2023-06-21T06:20:57.405Z,100690.78
2023-06-21T06:23:23.795Z,100689.13
2023-06-21T06:25:50.239Z,100691.44
2023-06-21T06:28:16.774Z,100700.47
2023-06-21T06:30:43.134Z,100715.16
2023-06-21T06:33:09.563Z,100708.31
2023-06-21T06:35:35.961Z,100707.97
2023-06-21T06:38:02.408Z,100712.34
2023-06-21T06:40:29.072Z,100708.75
2023-06-21T06:42:55.665Z,100715.59
2023-06-21T06:45:22.041Z,100715.84
2023-06-21T06:47:48.476Z,100714.72
2023-06-21T06:50:14.911Z,100712.22
2023-06-21T06:52:41.299Z,100710.03
2023-06-21T06:55:08.103Z,100711.78
2023-06-21T06:57:38.053Z,100699.69
2023-06-21T07:00:07.612Z,100709.75
2023-06-21T07:02:34.034Z,100712.75
2023-06-21T07:05:00.605Z,100710.84
2023-06-21T07:07:27.167Z,100712.94
2023-06-21T07:09:53.527Z,100713.81
2023-06-21T07:12:19.926Z,100716.38
2023-06-21T07:14:46.290Z,100720.69
2023-06-21T07:17:12.705Z,100725.38
2023-06-21T07:19:39.170Z,100725.47
2023-06-21T07:22:05.792Z,100726.16
2023-06-21T07:24:32.217Z,100733.59
2023-06-21T07:26:58.658Z,100738.13
2023-06-21T07:29:25.147Z,100750.66
2023-06-21T07:31:51.569Z,100760.31
2023-06-21T07:34:17.959Z,100761.59
2023-06-21T07:36:44.364Z,100763.44
2023-06-21T07:39:10.991Z,100767.81
2023-06-21T07:41:37.505Z,100774.81
2023-06-21T07:44:04.009Z,100769.97
2023-06-21T07:46:30.514Z,100777.91
2023-06-21T07:48:56.959Z,100778.50
2023-06-21T07:51:23.360Z,100790.53
2023-06-21T07:53:49.891Z,100795.97
2023-06-21T07:56:16.168Z,100791.72
2023-06-21T07:58:43.307Z,100800.81
2023-06-21T08:01:10.013Z,100799.09
2023-06-21T08:03:36.540Z,100804.16
2023-06-21T08:06:02.911Z,100802.97
2023-06-21T08:08:29.368Z,100803.13
2023-06-21T08:10:55.780Z,100805.94
2023-06-21T08:13:22.176Z,100807.28
2023-06-21T08:15:48.640Z,100816.56
2023-06-21T08:18:15.091Z,100817.31
2023-06-21T08:20:42.043Z,100822.31
2023-06-21T08:23:08.756Z,100822.72
2023-06-21T08:25:35.580Z,100820.19
2023-06-21T08:28:02.952Z,100819.88
2023-06-21T08:30:29.361Z,100819.34
2023-06-21T08:32:55.760Z,100819.03
2023-06-21T08:35:22.281Z,100824.72
2023-06-21T08:38:06.277Z,100828.97
2023-06-21T08:40:38.597Z,100826.75
2023-06-21T08:43:05.278Z,100822.09
2023-06-21T08:45:31.544Z,100823.25
2023-06-21T08:48:00.637Z,100828.81
2023-06-21T08:50:27.310Z,100832.59
2023-06-21T08:52:54.754Z,100839.31
2023-06-21T08:55:22.044Z,100840.03
2023-06-21T08:57:51.352Z,100840.88
2023-06-21T09:00:21.570Z,100837.13
2023-06-21T09:03:06.873Z,100838.91
2023-06-21T09:05:42.181Z,100839.38
2023-06-21T09:08:10.533Z,100851.25
2023-06-21T09:10:39.768Z,100848.47
2023-06-21T09:13:07.664Z,100848.06
2023-06-21T09:15:34.104Z,100856.19
2023-06-21T09:18:00.598Z,100858.59
2023-06-21T09:20:28.621Z,100865.13
2023-06-21T09:22:58.486Z,100863.19
2023-06-21T09:25:28.404Z,100857.75
2023-06-21T09:27:55.449Z,100875.50
2023-06-21T09:30:37.253Z,100865.91
2023-06-21T09:33:06.083Z,100874.09
2023-06-21T09:35:33.072Z,100873.66
2023-06-21T09:37:59.502Z,100867.34
2023-06-21T09:40:25.980Z,100877.50
2023-06-21T09:42:54.222Z,100876.06
2023-06-21T09:45:21.311Z,100878.31
2023-06-21T09:47:48.185Z,100885.41
2023-06-21T09:50:14.740Z,100887.34
2023-06-21T09:52:44.318Z,100880.25
2023-06-21T09:55:17.359Z,100881.34
2023-06-21T09:57:43.894Z,100875.03
2023-06-21T10:00:10.441Z,100884.75
2023-06-21T10:02:41.236Z,100885.00
2023-06-21T10:05:19.617Z,100877.88
2023-06-21T10:07:47.500Z,100882.31
2023-06-21T10:10:14.623Z,100879.81
2023-06-21T10:12:55.579Z,100889.53
2023-06-21T10:15:23.538Z,100883.38
2023-06-21T10:18:00.062Z,100871.69
2023-06-21T10:20:32.033Z,100877.16
2023-06-21T10:23:02.256Z,100871.88
2023-06-21T10:25:30.323Z,100873.56
2023-06-21T10:27:58.861Z,100884.44
2023-06-21T10:30:28.607Z,100879.16
2023-06-21T10:32:58.770Z,100881.59
2023-06-21T10:35:28.830Z,100892.91
2023-06-21T10:37:57.892Z,100890.66
2023-06-21T10:40:25.785Z,100885.19
2023-06-21T10:42:53.605Z,100895.25
2023-06-21T10:45:20.063Z,100894.72
2023-06-21T10:47:48.603Z,100891.69
2023-06-21T10:50:15.221Z,100891.28
2023-06-21T10:52:44.602Z,100884.25
2023-06-21T10:55:12.757Z,100886.75
2023-06-21T10:57:40.378Z,100896.03
2023-06-21T11:00:08.521Z,100904.50
2023-06-21T11:02:36.075Z,100910.16
2023-06-21T11:05:22.450Z,100908.28
2023-06-21T11:08:02.017Z,100908.19
2023-06-21T11:10:31.664Z,100913.69
2023-06-21T11:12:59.161Z,100908.78
2023-06-21T11:15:26.708Z,100912.06
2023-06-21T11:17:58.722Z,100900.16
2023-06-21T11:20:26.895Z,100916.25
2023-06-21T11:23:08.877Z,100905.00
2023-06-21T11:25:36.411Z,100903.09
2023-06-21T11:28:33.358Z,100906.22
2023-06-21T11:30:59.874Z,100899.84
2023-06-21T11:33:27.129Z,100912.06
2023-06-21T11:35:53.560Z,100900.16
2023-06-21T11:38:19.877Z,100902.38
2023-06-21T11:40:46.317Z,100906.56
2023-06-21T11:43:18.478Z,100911.31
2023-06-21T11:45:56.078Z,100914.72
2023-06-21T11:51:08.439Z,100907.09
2023-06-21T11:53:43.682Z,100917.41
2023-06-21T11:56:10.606Z,100926.91
2023-06-21T11:58:38.674Z,100925.97
2023-06-21T12:01:05.256Z,100937.72
2023-06-21T12:03:32.181Z,100932.16
2023-06-21T12:06:01.145Z,100938.59
2023-06-21T12:08:31.950Z,100944.75
2023-06-21T12:11:01.493Z,100955.44
2023-06-21T12:13:29.072Z,100955.75
2023-06-21T12:15:57.682Z,100950.34
2023-06-21T12:18:26.009Z,100969.53
2023-06-21T12:20:55.423Z,100958.34
2023-06-21T12:23:23.391Z,100969.19
2023-06-21T12:26:02.725Z,100975.22
2023-06-21T12:28:32.289Z,100982.13
2023-06-21T12:31:03.276Z,100971.28
2023-06-21T12:33:31.752Z,100968.91
2023-06-21T12:36:24.428Z,100978.94
2023-06-21T12:38:57.037Z,100982.41
2023-06-21T12:41:25.970Z,100982.28
2023-06-21T12:43:54.873Z,100987.94
2023-06-21T12:46:22.910Z,100987.03
2023-06-21T12:48:59.783Z,100989.63
2023-06-21T12:51:31.547Z,100986.22
2023-06-21T12:54:05.154Z,100988.75
2023-06-21T12:56:34.951Z,100996.13
2023-06-21T12:59:05.374Z,100990.25
2023-06-21T13:01:35.816Z,100994.69
2023-06-21T13:04:10.835Z,100999.13
2023-06-21T13:06:38.846Z,100984.50
2023-06-21T13:09:06.383Z,100983.34
2023-06-21T13:11:33.856Z,100982.44
2023-06-21T13:14:00.472Z,100987.44
2023-06-21T13:16:27.538Z,100993.38
2023-06-21T13:18:55.299Z,100987.16
2023-06-21T13:21:22.874Z,100982.66
2023-06-21T13:23:50.318Z,100975.91
2023-06-21T13:26:17.879Z,100983.88
2023-06-21T13:28:44.637Z,100979.44
2023-06-21T13:31:12.106Z,100980.50
2023-06-21T13:33:38.729Z,100979.50
2023-06-21T13:36:05.646Z,100986.16
2023-06-21T13:38:32.224Z,100982.31
2023-06-21T13:40:58.914Z,100972.69
2023-06-21T13:43:25.751Z,100968.47
2023-06-21T13:45:54.632Z,100968.28
2023-06-21T13:48:21.381Z,100974.81
2023-06-21T13:50:47.932Z,100975.50
2023-06-21T13:53:17.812Z,100973.72
2023-06-21T13:55:44.532Z,100974.06
2023-06-21T13:58:11.147Z,100966.47
2023-06-21T14:00:37.644Z,100962.47
2023-06-21T14:03:04.250Z,100965.94
2023-06-21T14:05:32.252Z,100961.03
2023-06-21T14:07:58.788Z,100961.88
2023-06-21T14:10:25.905Z,100959.09
2023-06-21T14:12:52.994Z,100960.78
2023-06-21T14:15:19.646Z,100966.81
2023-06-21T14:17:46.224Z,100965.38
2023-06-21T14:20:13.633Z,100977.03
2023-06-21T14:22:40.493Z,100970.97
2023-06-21T14:25:09.590Z,100968.47
2023-06-21T14:27:36.413Z,100963.78
2023-06-21T14:30:04.952Z,100963.22
2023-06-21T14:32:35.990Z,100951.91
2023-06-21T14:35:03.343Z,100962.31
2023-06-21T14:37:30.106Z,100966.81
2023-06-21T14:39:56.986Z,100964.00
2023-06-21T14:42:23.967Z,100970.06
2023-06-21T14:44:51.759Z,100955.84
2023-06-21T14:47:18.705Z,100968.72
2023-06-21T14:49:45.591Z,100955.72
2023-06-21T14:52:12.398Z,100971.84
2023-06-21T14:54:39.459Z,100969.94
2023-06-21T14:57:06.416Z,100970.16
2023-06-21T14:59:33.228Z,100976.81
2023-06-21T15:02:00.170Z,100979.19
2023-06-21T15:04:26.831Z,100976.06
2023-06-21T15:06:53.482Z,100975.69
2023-06-21T15:09:20.313Z,100973.19
2023-06-21T15:11:46.897Z,100976.09
2023-06-21T15:14:13.672Z,100976.53
2023-06-21T15:16:45.579Z,100976.31
2023-06-21T15:19:13.338Z,100973.91
2023-06-21T15:21:40.571Z,100973.31
2023-06-21T15:24:07.793Z,100979.19
2023-06-21T15:26:34.986Z,100984.66
2023-06-21T15:29:04.451Z,100985.19
2023-06-21T15:31:31.490Z,100988.22
2023-06-21T15:33:58.440Z,100989.47
2023-06-21T15:36:24.975Z,100985.00
2023-06-21T15:38:54.553Z,100981.06
2023-06-21T15:41:21.285Z,100977.28
2023-06-21T15:43:50.828Z,100980.00
2023-06-21T15:46:25.094Z,100981.69
2023-06-21T15:48:51.689Z,100990.88
2023-06-21T15:51:31.264Z,100983.69
2023-06-21T15:54:00.429Z,100984.69
2023-06-21T15:56:28.502Z,100986.22
2023-06-21T15:58:57.784Z,100989.38
2023-06-21T16:01:24.579Z,100988.72
2023-06-21T16:03:51.559Z,100990.16
2023-06-21T16:06:19.249Z,100988.91
2023-06-21T16:08:56.894Z,100985.41
2023-06-21T16:11:24.038Z,100974.06
2023-06-21T16:13:50.770Z,100983.44
2023-06-21T16:16:17.326Z,100980.38
2023-06-21T16:18:47.790Z,100984.84
2023-06-21T16:21:14.877Z,100982.19
2023-06-21T16:23:42.466Z,100980.72
2023-06-21T16:26:09.032Z,100983.25
2023-06-21T16:28:35.661Z,100988.00
2023-06-21T16:31:02.408Z,100984.22
2023-06-21T16:33:29.667Z,100989.38
2023-06-21T16:35:56.162Z,100997.31
2023-06-21T16:38:23.157Z,101000.88
2023-06-21T16:40:50.131Z,100998.56
2023-06-21T16:43:17.864Z,100999.53
2023-06-21T16:45:45.210Z,101003.97
2023-06-21T16:48:12.028Z,100996.34
2023-06-21T16:50:38.648Z,100996.44
2023-06-21T16:53:07.868Z,101007.31
2023-06-21T16:55:35.958Z,101011.97
2023-06-21T16:58:02.497Z,101011.75
2023-06-21T17:00:30.799Z,101025.69
2023-06-21T17:02:57.436Z,101019.56
2023-06-21T17:05:25.116Z,101029.78
2023-06-21T17:07:52.419Z,101028.72
2023-06-21T17:10:20.029Z,101040.75
2023-06-21T17:12:46.614Z,101048.69
2023-06-21T17:15:13.773Z,101046.47
2023-06-21T17:17:41.701Z,101053.84
2023-06-21T17:20:09.414Z,101058.72
2023-06-21T17:22:36.199Z,101058.25
2023-06-21T17:25:04.041Z,101064.66
2023-06-21T17:27:30.914Z,101067.81
2023-06-21T17:29:57.466Z,101062.72
2023-06-21T17:32:24.472Z,101063.97
2023-06-21T17:34:51.053Z,101069.09
2023-06-21T17:37:17.807Z,101064.63
2023-06-21T17:39:44.335Z,101071.94
2023-06-21T17:42:10.871Z,101071.03
2023-06-21T17:44:37.355Z,101069.50
2023-06-21T17:47:04.034Z,101082.66
2023-06-21T17:49:30.823Z,101078.53
2023-06-21T17:51:57.432Z,101077.59
2023-06-21T17:54:24.085Z,101082.19
2023-06-21T17:56:51.215Z,101085.28
2023-06-21T17:59:17.753Z,101087.44
2023-06-21T18:01:44.500Z,101089.50
2023-06-21T18:04:12.412Z,101091.09
2023-06-21T18:06:39.129Z,101088.00
2023-06-21T18:09:08.995Z,101099.63
2023-06-21T18:11:35.672Z,101091.94
2023-06-21T18:14:02.757Z,101098.47
2023-06-21T18:16:30.840Z,101098.78
2023-06-21T18:18:57.762Z,101099.03
2023-06-21T18:21:24.609Z,101107.22
2023-06-21T18:23:51.528Z,101118.56
2023-06-21T18:26:19.381Z,101111.88
2023-06-21T18:28:48.883Z,101111.78
2023-06-21T18:31:15.643Z,101116.88
2023-06-21T18:33:42.573Z,101115.69
2023-06-21T18:36:09.311Z,101116.31
2023-06-21T18:38:36.118Z,101117.50
2023-06-21T18:41:03.011Z,101112.31
2023-06-21T18:43:30.091Z,101109.97
2023-06-21T18:45:57.100Z,101110.84
2023-06-21T18:48:23.828Z,101112.28
2023-06-21T18:50:50.606Z,101106.59
2023-06-21T18:53:17.192Z,101113.06
2023-06-21T18:55:43.907Z,101118.75
2023-06-21T18:58:10.364Z,101120.88
2023-06-21T19:00:37.119Z,101117.66
2023-06-21T19:03:04.780Z,101122.34
2023-06-21T19:05:32.108Z,101115.31
2023-06-21T19:07:58.882Z,101126.53
2023-06-21T19:10:25.397Z,101125.41
2023-06-21T19:12:52.160Z,101131.06
2023-06-21T19:15:18.704Z,101125.06
2023-06-21T19:17:45.304Z,101120.22
2023-06-21T19:20:12.276Z,101119.00
2023-06-21T19:22:40.662Z,101135.31
2023-06-21T19:25:08.306Z,101137.22
2023-06-21T19:27:35.639Z,101136.84
2023-06-21T19:30:02.459Z,101137.50
2023-06-21T19:32:29.179Z,101146.81
2023-06-21T19:34:55.764Z,101148.28
2023-06-21T19:37:22.326Z,101154.78
2023-06-21T19:39:49.300Z,101152.59
2023-06-21T19:42:15.793Z,101156.22
2023-06-21T19:44:42.547Z,101150.66
2023-06-21T19:47:09.123Z,101156.53
2023-06-21T19:49:35.904Z,101155.09
2023-06-21T19:52:02.735Z,101165.84
2023-06-21T19:54:29.251Z,101164.31
2023-06-21T19:56:55.942Z,101163.75
2023-06-21T19:59:22.478Z,101166.97
2023-06-21T20:01:49.141Z,101163.63
2023-06-21T20:04:15.612Z,101177.16
2023-06-21T20:06:42.071Z,101186.19
2023-06-21T20:09:08.684Z,101193.44
2023-06-21T20:11:35.082Z,101190.16
2023-06-21T20:14:01.824Z,101189.69
2023-06-21T20:16:28.393Z,101189.19
2023-06-21T20:18:54.735Z,101186.16
2023-06-21T20:21:21.853Z,101193.44
2023-06-21T20:23:48.456Z,101196.59
2023-06-21T20:26:14.936Z,101202.06
2023-06-21T20:28:41.686Z,101209.38
2023-06-21T20:31:08.340Z,101209.66
2023-06-21T20:33:34.782Z,101205.66
2023-06-21T20:36:01.271Z,101211.44
2023-06-21T20:38:28.135Z,101211.75
2023-06-21T20:40:54.886Z,101212.84
2023-06-21T20:43:21.404Z,101209.56
2023-06-21T20:45:47.844Z,101210.78
2023-06-21T20:48:15.631Z,101208.50
2023-06-21T20:50:42.162Z,101226.09
2023-06-21T20:53:08.778Z,101228.00
2023-06-21T20:55:35.602Z,101224.13
2023-06-21T20:58:01.978Z,101236.69
2023-06-21T21:00:28.698Z,101227.28
2023-06-21T21:02:56.037Z,101221.56
2023-06-21T21:05:22.726Z,101229.69
2023-06-21T21:07:49.226Z,101229.97
2023-06-21T21:10:15.763Z,101234.56
2023-06-21T21:12:42.223Z,101233.03
2023-06-21T21:15:09.689Z,101232.34
2023-06-21T21:17:38.613Z,101236.13
2023-06-21T21:20:07.167Z,101238.16
2023-06-21T21:22:33.944Z,101234.81
2023-06-21T21:25:00.804Z,101241.91
2023-06-21T21:27:29.858Z,101242.91
2023-06-21T21:29:56.438Z,101242.31
2023-06-21T21:32:22.969Z,101235.56
2023-06-21T21:34:49.737Z,101236.75
2023-06-21T21:37:16.649Z,101238.69
2023-06-21T21:39:43.242Z,101239.69
2023-06-21T21:42:09.693Z,101234.59
2023-06-21T21:44:36.614Z,101242.66
2023-06-21T21:47:03.100Z,101235.91
2023-06-21T21:49:29.953Z,101240.44
2023-06-21T21:51:56.516Z,101246.66
2023-06-21T21:54:26.006Z,101252.00
2023-06-21T21:56:52.515Z,101244.47
2023-06-21T21:59:18.961Z,101245.44
2023-06-21T22:01:47.283Z,101240.44
2023-06-21T22:04:14.447Z,101242.31
2023-06-21T22:06:41.100Z,101245.97
2023-06-21T22:09:07.623Z,101248.59
2023-06-21T22:11:36.090Z,101256.59
2023-06-21T22:14:03.905Z,101250.69
2023-06-21T22:16:30.942Z,101243.97
2023-06-21T22:18:57.453Z,101244.13
2023-06-21T22:21:24.830Z,101247.59
2023-06-21T22:23:51.585Z,101245.25
2023-06-21T22:26:18.492Z,101242.66
2023-06-21T22:28:45.037Z,101230.78
2023-06-21T22:31:11.805Z,101235.09
2023-06-21T22:33:38.488Z,101246.41
2023-06-21T22:36:05.065Z,101243.03
2023-06-21T22:38:31.859Z,101246.47
2023-06-21T22:40:58.412Z,101240.63
2023-06-21T22:43:25.193Z,101242.34
2023-06-21T22:45:52.771Z,101257.19
2023-06-21T22:48:19.488Z,101250.28
2023-06-21T22:50:45.850Z,101262.41
2023-06-21T22:53:12.614Z,101257.16
2023-06-21T22:55:39.659Z,101260.63
2023-06-21T22:58:06.267Z,101267.53
2023-06-21T23:00:32.817Z,101271.03
2023-06-21T23:03:00.311Z,101269.38
2023-06-21T23:05:27.057Z,101266.91
2023-06-21T23:07:53.608Z,101265.19
2023-06-21T23:10:20.179Z,101271.28
2023-06-21T23:12:46.700Z,101274.81
2023-06-21T23:15:17.433Z,101279.13
2023-06-21T23:17:44.445Z,101275.72
2023-06-21T23:20:12.658Z,101279.25
2023-06-21T23:22:46.909Z,101279.28
2023-06-21T23:25:14.469Z,101270.72
2023-06-21T23:27:42.071Z,101276.88
2023-06-21T23:30:34.026Z,101274.38
2023-06-21T23:33:00.808Z,101286.63
2023-06-21T23:35:27.406Z,101282.31
2023-06-21T23:37:54.122Z,101274.56
2023-06-21T23:40:20.650Z,101276.44
2023-06-21T23:42:47.165Z,101273.03
2023-06-21T23:45:13.990Z,101281.78
2023-06-21T23:47:40.526Z,101281.75
2023-06-21T23:50:07.717Z,101280.97
2023-06-21T23:52:34.619Z,101284.63
2023-06-21T23:55:01.165Z,101289.91
2023-06-21T23:57:27.793Z,101280.56
2023-06-21T23:59:55.965Z,101280.59
